createdAt,value
2023-02-09T00:01:23.398Z,101606.44
2023-02-09T00:03:53.348Z,101601.94
2023-02-09T00:06:22.740Z,101602.25
2023-02-09T00:08:50.738Z,101595.97
2023-02-09T00:11:21.249Z,101592.44
2023-02-09T00:13:47.885Z,101592.44
2023-02-09T00:16:15.531Z,101590.66
2023-02-09T00:18:43.210Z,101593.59
2023-02-09T00:21:12.828Z,101595.25
2023-02-09T00:23:42.320Z,101592.69
2023-02-09T00:26:12.366Z,101591.78
2023-02-09T00:28:43.258Z,101601.88
2023-02-09T00:31:13.848Z,101592.22
2023-02-09T00:33:42.034Z,101593.38
2023-02-09T00:36:14.431Z,101592.31
2023-02-09T00:38:44.924Z,101597.34
2023-02-09T00:41:13.526Z,101598.41
2023-02-09T00:43:41.990Z,101595.56
2023-02-09T00:46:10.369Z,101600.34
2023-02-09T00:48:38.092Z,101600.00
2023-02-09T00:51:06.557Z,101597.91
2023-02-09T00:53:37.930Z,101592.56
2023-02-09T00:56:07.484Z,101586.16
2023-02-09T00:58:35.093Z,101584.50
2023-02-09T01:01:02.738Z,101588.91
2023-02-09T01:03:30.375Z,101593.63
2023-02-09T01:05:59.843Z,101583.53
2023-02-09T01:08:28.711Z,101585.34
2023-02-09T01:10:57.798Z,101585.03
2023-02-09T01:13:25.484Z,101586.50
2023-02-09T01:15:53.229Z,101580.72
2023-02-09T01:18:20.762Z,101581.16
2023-02-09T01:20:48.293Z,101579.38
2023-02-09T01:23:16.166Z,101584.09
2023-02-09T01:25:44.412Z,101581.25
2023-02-09T01:28:13.311Z,101576.63
2023-02-09T01:30:41.010Z,101582.09
2023-02-09T01:33:08.732Z,101580.72
2023-02-09T01:35:36.308Z,101573.75
2023-02-09T01:38:03.838Z,101571.06
2023-02-09T01:40:31.384Z,101559.63
2023-02-09T01:42:59.018Z,101566.75
2023-02-09T01:45:36.838Z,101562.47
2023-02-09T01:48:04.851Z,101562.56
2023-02-09T01:50:37.125Z,101567.13
2023-02-09T01:53:05.096Z,101568.31
2023-02-09T01:55:37.444Z,101561.34
2023-02-09T01:58:11.539Z,101568.78
2023-02-09T02:00:40.462Z,101569.03
2023-02-09T02:03:12.020Z,101556.84
2023-02-09T02:05:44.626Z,101558.88
2023-02-09T02:08:17.523Z,101564.19
2023-02-09T02:10:45.547Z,101557.63
2023-02-09T02:13:13.464Z,101556.25
2023-02-09T02:15:52.873Z,101555.91
2023-02-09T02:18:32.899Z,101568.16
2023-02-09T02:21:32.340Z,101565.66
2023-02-09T02:24:19.560Z,101572.91
2023-02-09T02:26:57.271Z,101569.66
2023-02-09T02:29:52.385Z,101568.59
2023-02-09T02:32:40.959Z,101575.09
2023-02-09T02:35:17.142Z,101573.31
2023-02-09T02:37:55.740Z,101569.00
2023-02-09T02:40:32.486Z,101568.19
2023-02-09T02:43:08.734Z,101570.94
2023-02-09T02:45:42.596Z,101560.63
2023-02-09T02:48:21.717Z,101556.72
2023-02-09T02:50:55.359Z,101555.78
2023-02-09T02:53:28.990Z,101551.44
2023-02-09T02:56:01.589Z,101554.72
2023-02-09T02:58:30.515Z,101548.47
2023-02-09T03:01:01.233Z,101552.28
2023-02-09T03:03:33.655Z,101548.69
2023-02-09T03:06:04.589Z,101548.94
2023-02-09T03:08:46.113Z,101544.31
2023-02-09T03:11:13.768Z,101544.38
2023-02-09T03:13:52.563Z,101541.38
2023-02-09T03:16:30.020Z,101544.06
2023-02-09T03:19:17.753Z,101539.94
2023-02-09T03:21:52.841Z,101537.03
2023-02-09T03:24:33.531Z,101553.88
2023-02-09T03:27:07.711Z,101550.63
2023-02-09T03:29:37.663Z,101542.03
2023-02-09T03:32:05.673Z,101537.03
2023-02-09T03:34:35.232Z,101541.69
2023-02-09T03:37:02.913Z,101537.06
2023-02-09T03:39:30.463Z,101540.72
2023-02-09T03:41:58.040Z,101540.69
2023-02-09T03:44:27.490Z,101543.50
2023-02-09T03:46:56.810Z,101541.19
2023-02-09T03:49:25.079Z,101553.25
2023-02-09T03:51:54.468Z,101553.16
2023-02-09T03:54:22.489Z,101552.69
2023-02-09T03:56:50.271Z,101549.50
2023-02-09T03:59:17.995Z,101553.06
2023-02-09T04:01:45.552Z,101558.53
2023-02-09T04:04:13.094Z,101553.69
2023-02-09T04:06:40.735Z,101565.84
2023-02-09T04:09:10.164Z,101560.50
2023-02-09T04:11:37.756Z,101561.63
2023-02-09T04:14:05.890Z,101561.72
2023-02-09T04:16:33.941Z,101559.16
2023-02-09T04:19:01.630Z,101561.91
2023-02-09T04:21:29.207Z,101565.53
2023-02-09T04:23:56.728Z,101574.72
2023-02-09T04:26:25.631Z,101565.19
2023-02-09T04:28:53.143Z,101571.00
2023-02-09T04:31:20.830Z,101572.19
2023-02-09T04:33:48.495Z,101574.72
2023-02-09T04:36:16.223Z,101575.06
2023-02-09T04:38:43.757Z,101571.31
2023-02-09T04:41:11.341Z,101577.81
2023-02-09T04:43:40.273Z,101578.03
2023-02-09T04:46:13.177Z,101576.84
2023-02-09T04:48:40.890Z,101571.47
2023-02-09T04:51:08.547Z,101573.81
2023-02-09T04:53:36.163Z,101569.91
2023-02-09T04:56:03.958Z,101572.63
2023-02-09T04:58:49.281Z,101566.00
2023-02-09T05:01:20.959Z,101571.00
2023-02-09T05:03:48.730Z,101563.13
2023-02-09T05:06:16.361Z,101563.84
2023-02-09T05:08:44.346Z,101555.28
2023-02-09T05:11:12.521Z,101556.38
2023-02-09T05:13:40.365Z,101559.81
2023-02-09T05:16:08.767Z,101550.66
2023-02-09T05:18:37.821Z,101561.41
2023-02-09T05:21:05.654Z,101572.16
2023-02-09T05:23:33.456Z,101573.03
2023-02-09T05:26:01.064Z,101576.78
2023-02-09T05:28:28.825Z,101586.47
2023-02-09T05:30:56.492Z,101583.56
2023-02-09T05:33:25.389Z,101590.69
2023-02-09T05:35:56.607Z,101584.28
2023-02-09T05:38:24.749Z,101581.81
2023-02-09T05:40:52.357Z,101577.59
2023-02-09T05:43:20.050Z,101580.47
2023-02-09T05:45:47.728Z,101571.53
2023-02-09T05:48:15.435Z,101574.78
2023-02-09T05:50:43.201Z,101581.41
2023-02-09T05:53:13.340Z,101582.78
2023-02-09T05:55:43.405Z,101593.41
2023-02-09T05:58:11.487Z,101590.00
2023-02-09T06:00:39.125Z,101588.94
2023-02-09T06:03:06.708Z,101600.56
2023-02-09T06:05:34.279Z,101602.19
2023-02-09T06:08:01.813Z,101605.22
2023-02-09T06:10:30.708Z,101607.00
2023-02-09T06:12:58.262Z,101615.63
2023-02-09T06:15:25.872Z,101622.94
2023-02-09T06:17:53.495Z,101618.66
2023-02-09T06:20:21.115Z,101598.78
2023-02-09T06:22:48.750Z,101598.63
2023-02-09T06:25:16.432Z,101616.56
2023-02-09T06:27:45.399Z,101627.50
2023-02-09T06:30:14.007Z,101625.72
2023-02-09T06:32:41.573Z,101628.97
2023-02-09T06:35:09.433Z,101636.13
2023-02-09T06:37:37.052Z,101631.13
2023-02-09T06:40:05.309Z,101638.31
2023-02-09T06:42:44.526Z,101637.97
2023-02-09T06:45:15.346Z,101632.22
2023-02-09T06:47:43.328Z,101627.25
2023-02-09T06:50:11.699Z,101632.41
2023-02-09T06:52:39.459Z,101637.28
2023-02-09T06:55:07.949Z,101640.50
2023-02-09T06:57:35.569Z,101648.78
2023-02-09T07:00:04.333Z,101646.22
2023-02-09T07:02:33.281Z,101650.16
2023-02-09T07:05:00.912Z,101646.91
2023-02-09T07:07:28.557Z,101648.38
2023-02-09T07:09:56.091Z,101641.94
2023-02-09T07:12:23.921Z,101651.25
2023-02-09T07:14:51.445Z,101646.75
2023-02-09T07:17:19.015Z,101645.31
2023-02-09T07:19:47.877Z,101658.94
2023-02-09T07:22:15.459Z,101654.00
2023-02-09T07:24:43.023Z,101655.31
2023-02-09T07:27:10.645Z,101654.63
2023-02-09T07:29:38.249Z,101648.91
2023-02-09T07:32:07.094Z,101658.63
2023-02-09T07:34:35.295Z,101654.50
2023-02-09T07:37:05.364Z,101655.03
2023-02-09T07:39:33.156Z,101656.06
2023-02-09T07:42:00.909Z,101664.66
2023-02-09T07:44:45.428Z,101668.25
2023-02-09T07:47:13.022Z,101661.97
2023-02-09T07:49:40.667Z,101662.09
2023-02-09T07:52:09.664Z,101664.06
2023-02-09T07:54:37.200Z,101665.28
2023-02-09T07:57:04.914Z,101662.53
2023-02-09T07:59:32.478Z,101666.53
2023-02-09T08:02:00.169Z,101666.88
2023-02-09T08:04:27.845Z,101665.44
2023-02-09T08:06:56.283Z,101664.31
2023-02-09T08:09:25.975Z,101663.19
2023-02-09T08:11:56.902Z,101673.94
2023-02-09T08:14:28.462Z,101673.81
2023-02-09T08:17:13.494Z,101672.22
2023-02-09T08:19:41.705Z,101667.97
2023-02-09T08:22:09.332Z,101652.22
2023-02-09T08:24:38.306Z,101668.00
2023-02-09T08:27:07.554Z,101662.31
2023-02-09T08:29:35.244Z,101669.88
2023-02-09T08:32:03.479Z,101667.59
2023-02-09T08:34:31.110Z,101678.25
2023-02-09T08:36:58.612Z,101677.50
2023-02-09T08:39:26.151Z,101672.25
2023-02-09T08:41:55.024Z,101671.28
2023-02-09T08:44:22.661Z,101670.69
2023-02-09T08:46:50.464Z,101678.88
2023-02-09T08:49:18.174Z,101678.03
2023-02-09T08:51:45.779Z,101681.31
2023-02-09T08:54:13.362Z,101671.53
2023-02-09T08:56:42.634Z,101670.97
2023-02-09T08:59:12.436Z,101673.34
2023-02-09T09:01:40.411Z,101675.28
2023-02-09T09:04:08.487Z,101675.50
2023-02-09T09:06:36.601Z,101670.47
2023-02-09T09:09:04.322Z,101674.09
2023-02-09T09:11:31.930Z,101682.06
2023-02-09T09:13:59.772Z,101677.59
2023-02-09T09:16:28.796Z,101680.88
2023-02-09T09:18:56.402Z,101682.09
2023-02-09T09:21:24.034Z,101673.72
2023-02-09T09:23:51.713Z,101684.75
2023-02-09T09:26:19.294Z,101691.72
2023-02-09T09:28:50.447Z,101687.88
2023-02-09T09:31:19.203Z,101687.34
2023-02-09T09:33:48.437Z,101688.56
2023-02-09T09:36:16.067Z,101692.69
2023-02-09T09:38:43.737Z,101693.75
2023-02-09T09:41:20.660Z,101696.47
2023-02-09T09:43:48.566Z,101693.84
2023-02-09T09:46:20.104Z,101692.25
2023-02-09T09:48:52.859Z,101690.41
2023-02-09T09:51:24.669Z,101694.28
2023-02-09T09:53:56.384Z,101695.13
2023-02-09T09:56:26.848Z,101700.25
2023-02-09T09:58:54.798Z,101694.84
2023-02-09T10:01:23.292Z,101700.19
2023-02-09T10:03:52.483Z,101705.03
2023-02-09T10:06:22.469Z,101704.59
2023-02-09T10:08:54.697Z,101695.59
2023-02-09T10:11:28.173Z,101698.19
2023-02-09T10:13:57.179Z,101701.94
2023-02-09T10:16:27.317Z,101696.91
2023-02-09T10:18:58.378Z,101700.25
2023-02-09T10:21:29.003Z,101702.66
2023-02-09T10:24:11.665Z,101694.97
2023-02-09T10:26:40.720Z,101701.41
2023-02-09T10:29:23.242Z,101698.47
2023-02-09T10:31:55.795Z,101695.03
2023-02-09T10:34:31.727Z,101700.88
2023-02-09T10:37:17.792Z,101690.84
2023-02-09T10:39:46.476Z,101694.53
2023-02-09T10:42:20.600Z,101686.81
2023-02-09T10:44:50.554Z,101691.84
2023-02-09T10:47:30.237Z,101688.66
2023-02-09T10:50:14.769Z,101684.13
2023-02-09T10:52:54.232Z,101683.38
2023-02-09T10:55:25.421Z,101679.00
2023-02-09T10:57:55.238Z,101675.03
2023-02-09T11:00:30.024Z,101673.09
2023-02-09T11:03:02.504Z,101667.41
2023-02-09T11:05:34.307Z,101658.81
2023-02-09T11:08:13.405Z,101663.94
2023-02-09T11:10:46.249Z,101664.19
2023-02-09T11:13:23.360Z,101649.94
2023-02-09T11:16:20.518Z,101653.84
2023-02-09T11:18:54.014Z,101653.78
2023-02-09T11:21:31.497Z,101644.94
2023-02-09T11:24:04.245Z,101646.44
2023-02-09T11:26:40.095Z,101644.78
2023-02-09T11:29:14.534Z,101639.91
2023-02-09T11:31:53.528Z,101633.66
2023-02-09T11:34:42.964Z,101624.38
2023-02-09T11:37:28.887Z,101628.00
2023-02-09T11:40:02.805Z,101621.19
2023-02-09T11:42:47.039Z,101619.94
2023-02-09T11:45:21.676Z,101617.88
2023-02-09T11:47:57.739Z,101619.94
2023-02-09T11:50:29.640Z,101623.75
2023-02-09T11:53:02.622Z,101618.31
2023-02-09T11:55:34.511Z,101614.53
2023-02-09T11:58:13.616Z,101610.72
2023-02-09T12:00:57.765Z,101610.72
2023-02-09T12:03:29.480Z,101612.84
2023-02-09T12:05:57.285Z,101602.34
2023-02-09T12:08:50.628Z,101601.09
2023-02-09T12:11:28.672Z,101598.75
2023-02-09T12:14:09.701Z,101593.44
2023-02-09T12:16:41.784Z,101590.84
2023-02-09T12:19:25.875Z,101586.50
2023-02-09T12:21:53.489Z,101582.69
2023-02-09T12:24:40.271Z,101579.97
2023-02-09T12:27:25.914Z,101577.47
2023-02-09T12:29:53.549Z,101588.63
2023-02-09T12:32:42.139Z,101580.78
2023-02-09T12:35:28.199Z,101572.59
2023-02-09T12:38:17.774Z,101568.91
2023-02-09T12:41:02.626Z,101576.34
2023-02-09T12:43:31.903Z,101581.84
2023-02-09T12:46:19.953Z,101579.69
2023-02-09T12:48:51.179Z,101591.16
2023-02-09T12:51:45.333Z,101577.19
2023-02-09T12:54:45.435Z,101577.47
2023-02-09T12:57:52.307Z,101578.47
2023-02-09T13:00:54.724Z,101571.72
2023-02-09T13:03:26.227Z,101581.66
2023-02-09T13:05:59.530Z,101579.16
2023-02-09T13:08:45.830Z,101590.50
2023-02-09T13:11:25.430Z,101584.63
2023-02-09T13:13:56.990Z,101581.50
2023-02-09T13:16:39.804Z,101583.91
2023-02-09T13:19:18.762Z,101591.75
2023-02-09T13:21:57.393Z,101586.94
2023-02-09T13:24:36.242Z,101595.97
2023-02-09T13:27:04.691Z,101590.75
2023-02-09T13:29:33.096Z,101583.03
2023-02-09T13:32:13.285Z,101582.34
2023-02-09T13:34:48.144Z,101592.38
2023-02-09T13:37:24.772Z,101599.06
2023-02-09T13:40:00.685Z,101589.84
2023-02-09T13:42:31.315Z,101577.59
2023-02-09T13:45:00.342Z,101581.66
2023-02-09T13:47:29.929Z,101575.88
2023-02-09T13:50:00.222Z,101578.53
2023-02-09T13:52:32.767Z,101582.03
2023-02-09T13:55:12.894Z,101581.78
2023-02-09T13:57:44.097Z,101594.31
2023-02-09T14:00:24.270Z,101583.47
2023-02-09T14:02:58.925Z,101586.84
2023-02-09T14:05:37.074Z,101581.88
2023-02-09T14:08:06.404Z,101582.78
2023-02-09T14:10:36.812Z,101587.25
2023-02-09T14:13:09.246Z,101597.34
2023-02-09T14:15:59.468Z,101594.75
2023-02-09T14:18:44.902Z,101592.59
2023-02-09T14:21:27.050Z,101590.81
2023-02-09T14:24:17.235Z,101595.91
2023-02-09T14:26:59.826Z,101604.56
2023-02-09T14:29:30.969Z,101601.91
2023-02-09T14:32:01.807Z,101601.78
2023-02-09T14:34:40.364Z,101605.81
2023-02-09T14:37:29.574Z,101609.66
2023-02-09T14:40:02.297Z,101613.97
2023-02-09T14:42:31.983Z,101611.09
2023-02-09T14:45:03.131Z,101606.66
2023-02-09T14:47:40.904Z,101609.97
2023-02-09T14:50:15.412Z,101603.84
2023-02-09T14:52:47.180Z,101611.84
2023-02-09T14:55:19.517Z,101607.31
2023-02-09T14:57:49.127Z,101611.09
2023-02-09T15:00:21.712Z,101610.41
2023-02-09T15:02:51.767Z,101611.41
2023-02-09T15:05:23.430Z,101612.59
2023-02-09T15:07:55.971Z,101604.75
2023-02-09T15:10:30.432Z,101612.28
2023-02-09T15:13:00.844Z,101604.84
2023-02-09T15:15:30.073Z,101607.91
2023-02-09T15:18:01.245Z,101598.84
2023-02-09T15:20:32.511Z,101611.78
2023-02-09T15:23:02.329Z,101610.81
2023-02-09T15:25:31.372Z,101615.06
2023-02-09T15:28:03.244Z,101624.59
2023-02-09T15:30:34.742Z,101623.25
2023-02-09T15:33:03.997Z,101624.81
2023-02-09T15:35:35.040Z,101622.91
2023-02-09T15:38:03.432Z,101624.00
2023-02-09T15:40:52.222Z,101618.31
2023-02-09T15:43:39.378Z,101611.63
2023-02-09T15:46:25.792Z,101607.34
2023-02-09T15:48:53.606Z,101621.34
2023-02-09T15:51:23.740Z,101618.44
2023-02-09T15:53:52.014Z,101620.16
2023-02-09T15:56:19.893Z,101618.22
2023-02-09T15:58:51.120Z,101627.41
2023-02-09T16:01:19.670Z,101623.75
2023-02-09T16:03:47.575Z,101626.00
2023-02-09T16:06:18.685Z,101622.47
2023-02-09T16:08:53.333Z,101630.16
2023-02-09T16:11:27.081Z,101635.81
2023-02-09T16:13:55.951Z,101638.44
2023-02-09T16:16:25.955Z,101643.00
2023-02-09T16:18:54.024Z,101641.56
2023-02-09T16:21:26.090Z,101650.31
2023-02-09T16:23:57.052Z,101655.06
2023-02-09T16:26:26.281Z,101649.97
2023-02-09T16:28:54.170Z,101654.50
2023-02-09T16:31:22.613Z,101658.53
2023-02-09T16:33:51.388Z,101654.59
2023-02-09T16:36:21.592Z,101655.91
2023-02-09T16:38:49.269Z,101644.91
2023-02-09T16:41:37.435Z,101650.34
2023-02-09T16:44:16.180Z,101656.03
2023-02-09T16:46:44.164Z,101656.38
2023-02-09T16:49:25.358Z,101651.81
2023-02-09T16:51:53.025Z,101648.25
2023-02-09T16:54:20.593Z,101655.44
2023-02-09T16:56:54.657Z,101651.13
2023-02-09T16:59:22.439Z,101656.22
2023-02-09T17:01:50.228Z,101667.19
2023-02-09T17:04:17.852Z,101667.44
2023-02-09T17:06:50.441Z,101678.09
2023-02-09T17:09:18.085Z,101679.63
2023-02-09T17:11:45.651Z,101663.59
2023-02-09T17:14:14.522Z,101660.00
2023-02-09T17:16:49.394Z,101671.41
2023-02-09T17:19:19.010Z,101686.50
2023-02-09T17:21:47.143Z,101679.22
2023-02-09T17:24:17.498Z,101688.84
2023-02-09T17:26:45.533Z,101689.06
2023-02-09T17:29:14.386Z,101690.03
2023-02-09T17:31:52.745Z,101695.75
2023-02-09T17:34:26.800Z,101694.03
2023-02-09T17:36:54.612Z,101703.66
2023-02-09T17:39:22.178Z,101705.16
2023-02-09T17:41:49.978Z,101720.31
2023-02-09T17:44:34.901Z,101716.28
2023-02-09T17:47:07.038Z,101716.22
2023-02-09T17:49:34.815Z,101707.13
2023-02-09T17:52:02.344Z,101711.06
2023-02-09T17:54:29.882Z,101716.81
2023-02-09T17:56:57.502Z,101720.44
2023-02-09T17:59:26.393Z,101723.03
2023-02-09T18:01:56.066Z,101730.34
2023-02-09T18:04:27.020Z,101728.03
2023-02-09T18:06:56.674Z,101720.03
2023-02-09T18:09:25.298Z,101728.59
2023-02-09T18:11:59.581Z,101720.72
2023-02-09T18:14:30.082Z,101729.13
2023-02-09T18:16:58.039Z,101730.78
2023-02-09T18:19:26.194Z,101746.31
2023-02-09T18:21:55.520Z,101742.59
2023-02-09T18:24:25.499Z,101747.34
2023-02-09T18:26:53.155Z,101739.63
2023-02-09T18:29:23.497Z,101739.94
2023-02-09T18:31:52.675Z,101740.13
2023-02-09T18:34:20.550Z,101751.28
2023-02-09T18:36:48.194Z,101741.19
2023-02-09T18:39:16.162Z,101748.47
2023-02-09T18:41:46.289Z,101748.34
2023-02-09T18:44:13.886Z,101746.56
2023-02-09T18:46:43.451Z,101752.50
2023-02-09T18:49:13.143Z,101752.19
2023-02-09T18:51:40.722Z,101753.13
2023-02-09T18:54:08.339Z,101761.72
2023-02-09T18:56:35.887Z,101770.66
2023-02-09T18:59:03.533Z,101784.81
2023-02-09T19:01:31.295Z,101784.97
2023-02-09T19:03:58.911Z,101781.97
2023-02-09T19:06:27.810Z,101787.34
2023-02-09T19:08:55.572Z,101792.25
2023-02-09T19:11:24.554Z,101792.13
2023-02-09T19:14:06.027Z,101791.53
2023-02-09T19:16:33.573Z,101798.03
2023-02-09T19:19:01.404Z,101797.75
2023-02-09T19:21:31.711Z,101797.13
2023-02-09T19:23:59.367Z,101797.28
2023-02-09T19:26:26.988Z,101808.00
2023-02-09T19:28:56.889Z,101807.84
2023-02-09T19:31:24.630Z,101809.00
2023-02-09T19:33:56.157Z,101808.13
2023-02-09T19:36:24.308Z,101810.94
2023-02-09T19:38:53.237Z,101817.03
2023-02-09T19:41:23.241Z,101818.19
2023-02-09T19:43:55.615Z,101825.78
2023-02-09T19:46:23.210Z,101826.22
2023-02-09T19:48:53.505Z,101825.31
2023-02-09T19:51:21.190Z,101828.00
2023-02-09T19:53:49.554Z,101826.81
2023-02-09T19:56:20.620Z,101823.66
2023-02-09T19:58:48.275Z,101823.66
2023-02-09T20:01:16.251Z,101827.34
2023-02-09T20:03:43.872Z,101835.66
2023-02-09T20:06:14.729Z,101843.09
2023-02-09T20:08:42.277Z,101844.59
2023-02-09T20:11:11.820Z,101843.53
2023-02-09T20:13:40.759Z,101853.78
2023-02-09T20:16:09.944Z,101845.78
2023-02-09T20:18:37.878Z,101847.28
2023-02-09T20:21:08.207Z,101846.94
2023-02-09T20:23:36.189Z,101845.59
2023-02-09T20:26:10.287Z,101841.88
2023-02-09T20:28:37.940Z,101832.94
2023-02-09T20:31:07.284Z,101842.16
2023-02-09T20:33:34.910Z,101836.44
2023-02-09T20:36:05.700Z,101845.84
2023-02-09T20:38:33.460Z,101844.03
2023-02-09T20:41:01.092Z,101849.81
2023-02-09T20:43:46.738Z,101852.13
2023-02-09T20:46:38.616Z,101858.69
2023-02-09T20:49:06.677Z,101856.22
2023-02-09T20:51:34.250Z,101857.72
2023-02-09T20:54:02.028Z,101860.84
2023-02-09T20:56:30.259Z,101858.13
2023-02-09T20:58:58.458Z,101862.16
2023-02-09T21:01:27.381Z,101858.88
2023-02-09T21:03:56.607Z,101861.50
2023-02-09T21:06:24.304Z,101856.13
2023-02-09T21:08:52.321Z,101858.50
2023-02-09T21:11:20.436Z,101860.88
2023-02-09T21:13:48.033Z,101864.84
2023-02-09T21:16:16.503Z,101865.28
2023-02-09T21:18:45.783Z,101875.38
2023-02-09T21:21:16.543Z,101879.25
2023-02-09T21:23:44.545Z,101882.88
2023-02-09T21:26:14.455Z,101876.59
2023-02-09T21:28:43.661Z,101886.44
2023-02-09T21:31:12.271Z,101888.66
2023-02-09T21:33:39.970Z,101895.88
2023-02-09T21:36:09.980Z,101891.25
2023-02-09T21:38:41.287Z,101892.25
2023-02-09T21:41:30.337Z,101901.44
2023-02-09T21:43:58.282Z,101905.91
2023-02-09T21:46:26.061Z,101913.31
2023-02-09T21:48:54.050Z,101913.00
2023-02-09T21:51:23.673Z,101928.47
2023-02-09T21:53:51.842Z,101920.16
2023-02-09T21:56:20.091Z,101921.94
2023-02-09T21:58:47.966Z,101910.16
2023-02-09T22:01:15.657Z,101917.41
2023-02-09T22:03:43.476Z,101919.75
2023-02-09T22:06:11.937Z,101924.06
2023-02-09T22:08:41.386Z,101930.75
2023-02-09T22:11:09.076Z,101928.88
2023-02-09T22:13:36.721Z,101935.94
2023-02-09T22:16:06.984Z,101937.44
2023-02-09T22:18:34.661Z,101936.19
2023-02-09T22:21:02.739Z,101929.94
2023-02-09T22:23:30.269Z,101935.00
2023-02-09T22:26:00.851Z,101934.06
2023-02-09T22:28:29.224Z,101937.56
2023-02-09T22:30:57.355Z,101937.56
2023-02-09T22:33:25.152Z,101937.56
2023-02-09T22:35:52.804Z,101942.47
2023-02-09T22:38:20.323Z,101942.53
2023-02-09T22:40:47.838Z,101939.84
2023-02-09T22:43:16.773Z,101944.22
2023-02-09T22:45:44.494Z,101938.13
2023-02-09T22:48:12.152Z,101930.63
2023-02-09T22:50:39.727Z,101933.13
2023-02-09T22:53:07.266Z,101929.56
2023-02-09T22:55:34.867Z,101934.59
2023-02-09T22:58:02.406Z,101938.41
2023-02-09T23:00:31.434Z,101942.56
2023-02-09T23:02:59.087Z,101932.16
2023-02-09T23:05:26.694Z,101940.13
2023-02-09T23:07:54.275Z,101939.75
2023-02-09T23:10:22.478Z,101953.09
2023-02-09T23:12:50.154Z,101936.75
2023-02-09T23:15:18.300Z,101940.56
2023-02-09T23:17:47.260Z,101945.63
2023-02-09T23:20:14.812Z,101947.41
2023-02-09T23:22:42.416Z,101947.41
2023-02-09T23:25:09.962Z,101944.72
2023-02-09T23:27:37.573Z,101950.31
2023-02-09T23:30:05.578Z,101943.13
2023-02-09T23:32:33.103Z,101944.91
2023-02-09T23:35:02.221Z,101950.38
2023-02-09T23:37:37.535Z,101947.16
2023-02-09T23:40:06.051Z,101949.13
2023-02-09T23:42:33.621Z,101939.59
2023-02-09T23:45:01.317Z,101934.41
2023-02-09T23:47:28.871Z,101937.88
2023-02-09T23:49:57.019Z,101943.13
2023-02-09T23:52:25.910Z,101934.50
2023-02-09T23:54:53.500Z,101935.97
2023-02-09T23:57:23.440Z,101941.56
2023-02-09T23:59:51.019Z,101936.19
